createdAt,value
2018-02-08T00:01:38.371Z,33.13
2018-02-08T00:04:06.533Z,31.00
2018-02-08T00:06:34.673Z,33.47
2018-02-08T00:09:02.842Z,28.58
2018-02-08T00:11:30.987Z,23.08
2018-02-08T00:13:59.149Z,26.37
2018-02-08T00:16:28.058Z,31.25
2018-02-08T00:18:56.226Z,26.45
2018-02-08T00:21:25.127Z,24.37
2018-02-08T00:23:53.292Z,29.75
2018-02-08T00:26:22.186Z,26.05
2018-02-08T00:28:50.349Z,29.67
2018-02-08T00:31:19.252Z,27.25
2018-02-08T00:33:47.418Z,31.02
2018-02-08T00:36:16.317Z,28.62
2018-02-08T00:38:44.482Z,32.70
2018-02-08T00:41:13.392Z,30.02
2018-02-08T00:43:41.556Z,24.90
2018-02-08T00:46:09.689Z,27.13
2018-02-08T00:48:37.858Z,29.17
2018-02-08T00:51:06.001Z,31.50
2018-02-08T00:53:34.164Z,29.42
2018-02-08T00:56:02.305Z,25.55
2018-02-08T00:58:31.236Z,26.77
2018-02-08T01:00:59.381Z,30.15
2018-02-08T01:03:27.521Z,31.02
2018-02-08T01:05:55.683Z,29.73
2018-02-08T01:08:23.821Z,26.42
2018-02-08T01:10:51.988Z,32.53
2018-02-08T01:13:20.121Z,32.13
2018-02-08T01:15:48.290Z,27.30
2018-02-08T01:18:16.429Z,27.80
2018-02-08T01:20:44.610Z,28.87
2018-02-08T01:23:12.748Z,32.67
2018-02-08T01:25:40.918Z,30.52
2018-02-08T01:28:09.819Z,27.67
2018-02-08T01:30:37.982Z,36.35
2018-02-08T01:33:06.885Z,31.52
2018-02-08T01:35:35.053Z,33.22
2018-02-08T01:38:03.194Z,33.08
2018-02-08T01:40:31.358Z,28.48
2018-02-08T01:42:59.493Z,25.00
2018-02-08T01:45:27.692Z,27.25
2018-02-08T01:47:55.828Z,24.83
2018-02-08T01:50:23.987Z,29.05
2018-02-08T01:52:52.124Z,25.33
2018-02-08T01:55:20.293Z,27.80
2018-02-08T01:57:48.424Z,35.38
2018-02-08T02:00:16.592Z,29.45
2018-02-08T02:02:44.725Z,32.08
2018-02-08T02:05:12.888Z,31.85
2018-02-08T02:07:41.022Z,29.33
2018-02-08T02:10:09.182Z,28.45
2018-02-08T02:12:37.322Z,37.40
2018-02-08T02:15:05.497Z,31.48
2018-02-08T02:17:33.628Z,35.70
2018-02-08T02:20:01.793Z,36.92
2018-02-08T02:22:29.924Z,32.38
2018-02-08T02:24:58.083Z,32.83
2018-02-08T02:27:26.222Z,29.30
2018-02-08T02:29:54.380Z,28.25
2018-02-08T02:32:22.525Z,27.65
2018-02-08T02:34:51.454Z,29.83
2018-02-08T02:37:19.603Z,29.25
2018-02-08T02:39:48.537Z,35.17
2018-02-08T02:42:16.664Z,27.65
2018-02-08T02:44:45.600Z,28.90
2018-02-08T02:47:13.729Z,30.15
2018-02-08T02:49:42.667Z,34.92
2018-02-08T02:52:10.801Z,34.72
2018-02-08T02:54:38.965Z,29.45
2018-02-08T02:57:07.109Z,30.55
2018-02-08T02:59:35.269Z,30.12
2018-02-08T03:02:03.413Z,32.00
2018-02-08T03:04:31.581Z,31.83
2018-02-08T03:06:59.712Z,28.95
2018-02-08T03:09:27.882Z,31.73
2018-02-08T03:11:56.013Z,28.90
2018-02-08T03:14:24.182Z,28.10
2018-02-08T03:16:52.321Z,32.58
2018-02-08T03:19:20.487Z,31.65
2018-02-08T03:21:48.622Z,32.35
2018-02-08T03:24:16.790Z,30.12
2018-02-08T03:26:44.963Z,32.65
2018-02-08T03:29:13.101Z,29.65
2018-02-08T03:31:42.045Z,27.52
2018-02-08T03:34:10.190Z,32.42
2018-02-08T03:36:38.352Z,28.92
2018-02-08T03:39:06.491Z,33.60
2018-02-08T03:41:34.653Z,33.67
2018-02-08T03:44:02.797Z,29.35
2018-02-08T03:46:30.963Z,28.67
2018-02-08T03:48:59.104Z,31.67
2018-02-08T03:51:27.261Z,28.42
2018-02-08T03:53:56.162Z,33.95
2018-02-08T03:56:24.316Z,26.95
2018-02-08T03:58:52.463Z,25.90
2018-02-08T04:01:20.628Z,25.50
2018-02-08T04:03:48.773Z,37.38
2018-02-08T04:06:16.935Z,28.15
2018-02-08T04:08:45.829Z,31.15
2018-02-08T04:11:13.992Z,25.52
2018-02-08T04:13:42.891Z,31.27
2018-02-08T04:16:11.059Z,26.12
2018-02-08T04:18:39.961Z,31.77
2018-02-08T04:21:08.124Z,35.50
2018-02-08T04:23:37.021Z,27.50
2018-02-08T04:26:05.188Z,33.08
2018-02-08T04:28:34.082Z,31.73
2018-02-08T04:31:02.251Z,33.25
2018-02-08T04:33:31.148Z,33.20
2018-02-08T04:35:59.311Z,33.28
2018-02-08T04:38:39.854Z,34.53
2018-02-08T04:41:19.669Z,27.35
2018-02-08T04:47:07.865Z,27.15
2018-02-08T04:49:36.003Z,31.27
2018-02-08T04:52:04.165Z,28.67
2018-02-08T04:54:32.297Z,33.88
2018-02-08T04:57:00.456Z,29.55
2018-02-08T04:59:28.594Z,28.95
2018-02-08T05:01:56.757Z,31.25
2018-02-08T05:04:24.901Z,30.15
2018-02-08T05:06:53.834Z,35.88
2018-02-08T05:09:21.973Z,25.80
2018-02-08T05:11:50.888Z,32.15
2018-02-08T05:14:19.026Z,26.12
2018-02-08T05:16:47.953Z,27.65
2018-02-08T05:19:16.098Z,28.10
2018-02-08T05:21:45.021Z,28.85
2018-02-08T05:24:13.158Z,35.10
2018-02-08T05:26:42.090Z,31.25
2018-02-08T05:29:10.230Z,29.00
2018-02-08T05:31:39.158Z,31.60
2018-02-08T05:34:07.297Z,26.52
2018-02-08T05:36:36.225Z,33.75
2018-02-08T05:39:04.362Z,28.33
2018-02-08T05:41:32.535Z,23.10
2018-02-08T05:44:00.677Z,34.55
2018-02-08T05:46:28.845Z,28.38
2018-02-08T05:48:56.977Z,22.62
2018-02-08T05:51:25.144Z,26.67
2018-02-08T05:53:53.290Z,26.83
2018-02-08T05:56:21.455Z,27.52
2018-02-08T05:58:49.589Z,27.13
2018-02-08T06:01:17.757Z,31.67
2018-02-08T06:03:45.923Z,35.70
2018-02-08T06:06:14.093Z,29.25
2018-02-08T06:08:42.239Z,35.17
2018-02-08T06:11:10.384Z,32.38
2018-02-08T06:13:38.533Z,27.95
2018-02-08T06:16:06.691Z,26.37
2018-02-08T06:18:34.849Z,33.13
2018-02-08T06:21:02.990Z,34.47
2018-02-08T06:23:31.175Z,30.85
2018-02-08T06:26:00.082Z,32.10
2018-02-08T06:28:29.009Z,25.08
2018-02-08T06:30:57.144Z,26.30
2018-02-08T06:33:25.349Z,30.52
2018-02-08T06:35:53.496Z,25.70
2018-02-08T06:38:21.666Z,27.92
2018-02-08T06:40:49.802Z,27.45
2018-02-08T06:43:17.972Z,29.55
2018-02-08T06:45:46.104Z,25.73
2018-02-08T06:48:14.265Z,31.55
2018-02-08T06:50:42.399Z,34.47
2018-02-08T06:53:10.569Z,30.42
2018-02-08T06:55:38.714Z,27.58
2018-02-08T06:58:06.889Z,28.98
2018-02-08T07:00:35.027Z,29.55
2018-02-08T07:03:03.965Z,32.17
2018-02-08T07:05:32.104Z,30.17
2018-02-08T07:08:00.262Z,34.15
2018-02-08T07:10:28.402Z,28.60
2018-02-08T07:12:56.598Z,32.95
2018-02-08T07:15:25.505Z,29.27
2018-02-08T07:17:53.663Z,25.48
2018-02-08T07:20:22.577Z,27.90
2018-02-08T07:22:50.733Z,33.47
2018-02-08T07:25:19.642Z,28.67
2018-02-08T07:27:47.828Z,31.92
2018-02-08T07:30:15.970Z,33.25
2018-02-08T07:32:44.159Z,22.37
2018-02-08T07:35:12.287Z,33.17
2018-02-08T07:37:40.441Z,25.23
2018-02-08T07:40:08.577Z,28.38
2018-02-08T07:42:36.746Z,33.08
2018-02-08T07:45:04.894Z,34.33
2018-02-08T07:47:33.053Z,33.80
2018-02-08T07:50:01.193Z,33.25
2018-02-08T07:52:29.354Z,30.20
2018-02-08T07:54:57.498Z,35.22
2018-02-08T07:57:26.450Z,38.83
2018-02-08T07:59:54.594Z,36.92
2018-02-08T08:02:22.761Z,34.55
2018-02-08T08:04:50.907Z,38.22
2018-02-08T08:07:19.064Z,32.90
2018-02-08T08:09:47.201Z,36.33
2018-02-08T08:12:15.370Z,40.97
2018-02-08T08:14:43.510Z,31.90
2018-02-08T08:17:11.676Z,36.58
2018-02-08T08:19:39.808Z,36.50
2018-02-08T08:22:07.981Z,33.80
2018-02-08T08:24:36.115Z,36.88
2018-02-08T08:27:04.283Z,36.33
2018-02-08T08:29:33.191Z,36.03
2018-02-08T08:32:01.361Z,34.30
2018-02-08T08:34:29.500Z,35.17
2018-02-08T08:36:57.637Z,34.65
2018-02-08T08:39:25.801Z,32.53
2018-02-08T08:41:53.957Z,32.42
2018-02-08T08:44:22.124Z,32.08
2018-02-08T08:46:51.028Z,30.15
2018-02-08T08:49:19.205Z,32.60
2018-02-08T08:51:47.341Z,32.58
2018-02-08T08:54:15.505Z,31.58
2018-02-08T08:56:43.649Z,32.65
2018-02-08T08:59:11.817Z,31.65
2018-02-08T09:01:39.958Z,37.47
2018-02-08T09:04:08.128Z,32.30
2018-02-08T09:06:37.046Z,30.20
2018-02-08T09:09:05.204Z,28.48
2018-02-08T09:11:33.370Z,29.17
2018-02-08T09:14:01.513Z,29.67
2018-02-08T09:16:29.672Z,27.77
2018-02-08T09:18:57.829Z,29.20
2018-02-08T09:21:26.022Z,32.40
2018-02-08T09:23:54.179Z,26.45
2018-02-08T09:26:22.348Z,30.08
2018-02-08T09:28:50.484Z,27.33
2018-02-08T09:31:18.657Z,25.77
2018-02-08T09:33:46.786Z,25.88
2018-02-08T09:36:14.945Z,26.83
2018-02-08T09:38:43.120Z,24.80
2018-02-08T09:41:11.265Z,26.30
2018-02-08T09:43:39.407Z,25.45
2018-02-08T09:46:07.566Z,25.17
2018-02-08T09:48:35.700Z,25.58
2018-02-08T09:51:03.832Z,24.45
2018-02-08T09:53:31.996Z,21.17
2018-02-08T09:56:00.130Z,27.52
2018-02-08T09:58:28.293Z,21.20
2018-02-08T10:00:56.425Z,24.58
2018-02-08T10:03:24.581Z,25.08
2018-02-08T10:05:52.713Z,25.05
2018-02-08T10:08:20.878Z,24.58
2018-02-08T10:10:49.014Z,22.42
2018-02-08T10:13:17.173Z,23.27
2018-02-08T10:15:45.310Z,28.30
2018-02-08T10:18:13.486Z,23.90
2018-02-08T10:20:41.624Z,22.65
2018-02-08T10:23:09.789Z,27.40
2018-02-08T10:25:38.686Z,24.70
2018-02-08T10:28:06.853Z,20.70
2018-02-08T10:30:35.752Z,21.50
2018-02-08T10:33:03.906Z,19.50
2018-02-08T10:35:32.038Z,21.50
2018-02-08T10:38:00.211Z,23.12
2018-02-08T10:40:28.412Z,23.27
2018-02-08T10:42:56.581Z,19.37
2018-02-08T10:45:24.722Z,15.52
2018-02-08T10:47:52.877Z,15.75
2018-02-08T10:50:21.015Z,19.77
2018-02-08T10:52:49.172Z,18.62
2018-02-08T10:55:17.297Z,21.02
2018-02-08T10:57:45.482Z,19.58
2018-02-08T11:00:13.610Z,17.50
2018-02-08T11:02:41.737Z,23.80
2018-02-08T11:05:09.898Z,22.65
2018-02-08T11:07:38.048Z,20.50
2018-02-08T11:10:06.219Z,23.12
2018-02-08T11:12:35.124Z,23.05
2018-02-08T11:15:03.281Z,22.33
2018-02-08T11:17:32.177Z,19.20
2018-02-08T11:20:00.337Z,23.87
2018-02-08T11:22:28.467Z,22.20
2018-02-08T11:24:56.629Z,19.27
2018-02-08T11:27:24.765Z,24.45
2018-02-08T11:29:52.918Z,22.58
2018-02-08T11:32:21.061Z,20.62
2018-02-08T11:34:49.217Z,21.20
2018-02-08T11:37:17.354Z,18.87
2018-02-08T11:39:45.504Z,18.67
2018-02-08T11:42:13.637Z,20.02
2018-02-08T11:44:41.792Z,20.95
2018-02-08T11:47:09.926Z,21.20
2018-02-08T11:49:38.090Z,18.83
2018-02-08T11:52:06.223Z,19.98
2018-02-08T11:54:34.379Z,18.70
2018-02-08T11:57:02.511Z,18.10
2018-02-08T11:59:30.679Z,18.87
2018-02-08T12:01:58.813Z,19.37
2018-02-08T12:04:26.964Z,17.95
2018-02-08T12:06:55.093Z,21.77
2018-02-08T12:09:23.255Z,18.67
2018-02-08T12:11:51.380Z,18.80
2018-02-08T12:14:20.283Z,18.12
2018-02-08T12:16:48.431Z,18.73
2018-02-08T12:19:16.566Z,20.83
2018-02-08T12:21:44.713Z,20.85
2018-02-08T12:24:12.838Z,21.05
2018-02-08T12:26:40.994Z,16.92
2018-02-08T12:29:09.139Z,18.83
2018-02-08T12:31:37.297Z,22.75
2018-02-08T12:34:05.418Z,22.13
2018-02-08T12:36:33.575Z,18.67
2018-02-08T12:39:01.703Z,22.50
2018-02-08T12:41:29.863Z,21.20
2018-02-08T12:43:57.988Z,16.45
2018-02-08T12:46:26.142Z,18.40
2018-02-08T12:48:54.280Z,18.35
2018-02-08T12:51:22.457Z,17.90
2018-02-08T12:53:50.594Z,16.95
2018-02-08T12:56:18.757Z,17.40
2018-02-08T12:58:46.886Z,19.55
2018-02-08T13:01:15.041Z,18.20
2018-02-08T13:03:43.170Z,20.23
2018-02-08T13:06:11.336Z,18.05
2018-02-08T13:08:39.465Z,19.55
2018-02-08T13:11:07.620Z,14.55
2018-02-08T13:13:35.757Z,21.60
2018-02-08T13:16:03.937Z,20.17
2018-02-08T13:18:32.126Z,18.23
2018-02-08T13:21:00.284Z,18.70
2018-02-08T13:23:28.411Z,20.75
2018-02-08T13:25:56.565Z,17.52
2018-02-08T13:28:24.704Z,20.12
2018-02-08T13:30:52.858Z,18.70
2018-02-08T13:33:20.989Z,17.20
2018-02-08T13:35:49.147Z,19.83
2018-02-08T13:38:17.289Z,18.70
2018-02-08T13:40:46.964Z,16.15
2018-02-08T13:43:15.142Z,21.67
2018-02-08T13:45:43.324Z,18.23
2018-02-08T13:48:12.493Z,17.67
2018-02-08T13:50:42.183Z,16.62
2018-02-08T13:56:31.888Z,19.15
2018-02-08T13:59:18.833Z,16.73
2018-02-08T14:01:48.573Z,19.00
2018-02-08T14:04:16.704Z,18.15
2018-02-08T14:06:44.857Z,16.42
2018-02-08T14:09:12.985Z,18.85
2018-02-08T14:11:41.172Z,18.45
2018-02-08T14:14:09.300Z,18.48
2018-02-08T14:16:37.457Z,21.05
2018-02-08T14:19:05.613Z,19.83
2018-02-08T14:21:33.736Z,18.45
2018-02-08T14:24:02.673Z,19.05
2018-02-08T14:26:30.809Z,20.95
2018-02-08T14:28:59.731Z,19.25
2018-02-08T14:31:27.865Z,20.60
2018-02-08T14:33:56.019Z,20.95
2018-02-08T14:36:24.154Z,27.10
2018-02-08T14:38:52.304Z,25.15
2018-02-08T14:41:20.445Z,22.20
2018-02-08T14:43:48.598Z,25.52
2018-02-08T14:46:16.734Z,21.02
2018-02-08T14:48:44.889Z,22.35
2018-02-08T14:51:13.023Z,24.45
2018-02-08T14:53:41.173Z,26.45
2018-02-08T14:56:09.297Z,26.77
2018-02-08T14:58:37.468Z,30.23
2018-02-08T15:01:05.594Z,26.92
2018-02-08T15:03:34.509Z,34.17
2018-02-08T15:06:02.636Z,45.22
2018-02-08T15:08:30.796Z,48.38
2018-02-08T15:10:59.697Z,30.00
2018-02-08T15:13:27.853Z,27.95
2018-02-08T15:15:56.761Z,24.05
2018-02-08T15:18:24.914Z,26.55
2018-02-08T15:20:53.037Z,24.35
2018-02-08T15:23:21.197Z,26.48
2018-02-08T15:25:49.324Z,25.10
2018-02-08T15:28:17.473Z,27.80
2018-02-08T15:30:45.609Z,27.15
2018-02-08T15:33:13.756Z,28.25
2018-02-08T15:35:41.895Z,25.83
2018-02-08T15:38:10.049Z,23.65
2018-02-08T15:40:38.182Z,22.48
2018-02-08T15:43:07.112Z,20.30
2018-02-08T15:45:35.244Z,18.73
2018-02-08T15:48:04.186Z,21.77
2018-02-08T15:50:32.315Z,23.75
2018-02-08T15:53:01.222Z,24.12
2018-02-08T15:55:29.381Z,30.55
2018-02-08T15:57:58.292Z,24.23
2018-02-08T16:00:26.494Z,23.48
2018-02-08T16:02:54.629Z,24.02
2018-02-08T16:05:22.906Z,24.12
2018-02-08T16:07:51.075Z,23.48
2018-02-08T16:10:19.233Z,25.52
2018-02-08T16:12:47.368Z,25.52
2018-02-08T16:15:15.525Z,24.70
2018-02-08T16:17:43.667Z,28.75
2018-02-08T16:20:11.817Z,30.10
2018-02-08T16:22:39.948Z,28.75
2018-02-08T16:25:08.118Z,24.77
2018-02-08T16:27:36.277Z,24.58
2018-02-08T16:30:04.452Z,22.67
2018-02-08T16:32:32.610Z,31.42
2018-02-08T16:35:00.749Z,34.25
2018-02-08T16:37:28.926Z,35.47
2018-02-08T16:39:57.075Z,36.03
2018-02-08T16:42:25.234Z,30.15
2018-02-08T16:44:53.375Z,32.08
2018-02-08T16:47:21.540Z,29.63
2018-02-08T16:49:49.706Z,28.10
2018-02-08T16:52:17.913Z,32.58
2018-02-08T16:54:46.060Z,32.95
2018-02-08T16:57:14.315Z,30.37
2018-02-08T16:59:42.514Z,32.35
2018-02-08T17:02:10.738Z,34.35
2018-02-08T17:04:38.898Z,32.00
2018-02-08T17:07:07.061Z,34.30
2018-02-08T17:09:35.203Z,41.67
2018-02-08T17:12:04.143Z,33.47
2018-02-08T17:14:32.285Z,32.33
2018-02-08T17:17:00.452Z,30.48
2018-02-08T17:19:28.589Z,38.35
2018-02-08T17:21:56.748Z,37.97
2018-02-08T17:24:24.894Z,25.15
2018-02-08T17:26:53.058Z,34.22
2018-02-08T17:29:21.211Z,40.00
2018-02-08T17:31:49.379Z,37.05
2018-02-08T17:34:17.520Z,36.65
2018-02-08T17:36:45.685Z,35.25
2018-02-08T17:39:13.821Z,31.52
2018-02-08T17:41:42.616Z,39.70
2018-02-08T17:44:10.869Z,35.85
2018-02-08T17:46:39.324Z,38.45
2018-02-08T17:49:08.254Z,33.03
2018-02-08T17:51:36.432Z,41.78
2018-02-08T17:54:04.869Z,33.35
2018-02-08T17:56:33.436Z,38.53
2018-02-08T17:59:01.595Z,40.42
2018-02-08T18:01:29.756Z,44.28
2018-02-08T18:03:57.908Z,39.67
2018-02-08T18:06:26.077Z,37.42
2018-02-08T18:08:54.976Z,45.47
2018-02-08T18:11:23.145Z,40.42
2018-02-08T18:13:52.138Z,36.95
2018-02-08T18:16:20.299Z,46.65
2018-02-08T18:18:48.822Z,41.03
2018-02-08T18:21:17.313Z,35.90
2018-02-08T18:23:45.440Z,42.28
2018-02-08T18:26:13.627Z,34.85
2018-02-08T18:28:42.110Z,51.15
2018-02-08T18:31:10.414Z,41.50
2018-02-08T18:33:38.707Z,34.97
2018-02-08T18:36:07.259Z,38.70
2018-02-08T18:38:35.922Z,42.42
2018-02-08T18:41:04.605Z,41.88
2018-02-08T18:43:33.224Z,37.47
2018-02-08T18:46:01.919Z,39.05
2018-02-08T18:48:30.613Z,47.13
2018-02-08T18:50:59.753Z,38.25
2018-02-08T18:53:28.141Z,44.90
2018-02-08T18:55:56.510Z,38.95
2018-02-08T18:58:25.193Z,45.72
2018-02-08T19:00:53.673Z,40.12
2018-02-08T19:03:22.221Z,40.45
2018-02-08T19:05:50.841Z,43.10
2018-02-08T19:08:19.579Z,45.30
2018-02-08T19:10:47.760Z,43.28
2018-02-08T19:13:15.938Z,38.13
2018-02-08T19:15:44.112Z,39.60
2018-02-08T19:18:12.317Z,41.58
2018-02-08T19:20:40.519Z,47.70
2018-02-08T19:23:09.498Z,44.92
2018-02-08T19:25:37.684Z,40.53
2018-02-08T19:28:05.870Z,40.70
2018-02-08T19:30:34.311Z,48.72
2018-02-08T19:33:02.498Z,38.45
2018-02-08T19:35:30.653Z,36.28
2018-02-08T19:37:58.847Z,36.70
2018-02-08T19:40:27.757Z,43.25
2018-02-08T19:42:55.977Z,47.25
2018-02-08T19:45:24.149Z,44.55
2018-02-08T19:47:52.315Z,47.47
2018-02-08T19:50:20.462Z,43.45
2018-02-08T19:52:48.635Z,52.28
2018-02-08T19:55:16.784Z,40.28
2018-02-08T19:57:44.956Z,42.83
2018-02-08T20:00:13.116Z,43.47
2018-02-08T20:02:41.298Z,38.30
2018-02-08T20:05:09.448Z,45.40
2018-02-08T20:07:37.605Z,43.03
2018-02-08T20:10:05.742Z,37.50
2018-02-08T20:12:33.913Z,43.00
2018-02-08T20:15:04.519Z,48.87
2018-02-08T20:17:32.694Z,45.90
2018-02-08T20:20:00.822Z,44.70
2018-02-08T20:22:28.993Z,43.25
2018-02-08T20:24:57.125Z,46.13
2018-02-08T20:27:26.062Z,42.47
2018-02-08T20:29:54.204Z,43.47
2018-02-08T20:32:23.132Z,42.80
2018-02-08T20:34:51.273Z,42.80
2018-02-08T20:37:19.437Z,42.40
2018-02-08T20:39:47.573Z,40.80
2018-02-08T20:42:21.466Z,43.47
2018-02-08T20:44:49.604Z,36.10
2018-02-08T20:47:17.797Z,36.95
2018-02-08T20:49:51.665Z,41.03
2018-02-08T20:52:20.600Z,38.72
2018-02-08T20:54:48.742Z,43.05
2018-02-08T20:57:17.669Z,44.17
2018-02-08T20:59:45.810Z,43.97
2018-02-08T21:02:14.737Z,40.15
2018-02-08T21:04:42.865Z,40.08
2018-02-08T21:07:11.798Z,42.08
2018-02-08T21:09:39.954Z,46.45
2018-02-08T21:12:08.135Z,45.90
2018-02-08T21:14:36.286Z,39.65
2018-02-08T21:17:04.444Z,41.37
2018-02-08T21:19:33.352Z,49.80
2018-02-08T21:22:01.509Z,44.70
2018-02-08T21:24:30.437Z,42.88
2018-02-08T21:26:58.603Z,38.45
2018-02-08T21:29:26.785Z,37.58
2018-02-08T21:31:54.933Z,44.88
2018-02-08T21:34:23.072Z,47.13
2018-02-08T21:36:51.205Z,44.80
2018-02-08T21:39:19.368Z,41.03
2018-02-08T21:41:47.506Z,45.10
2018-02-08T21:44:15.662Z,50.40
2018-02-08T21:46:43.801Z,41.58
2018-02-08T21:49:11.963Z,38.55
2018-02-08T21:51:40.096Z,40.33
2018-02-08T21:54:08.272Z,46.10
2018-02-08T21:56:36.430Z,44.30
2018-02-08T21:59:04.593Z,44.10
2018-02-08T22:01:32.728Z,38.17
2018-02-08T22:04:00.898Z,48.72
2018-02-08T22:06:29.033Z,37.60
2018-02-08T22:08:57.194Z,44.85
2018-02-08T22:11:25.333Z,46.15
2018-02-08T22:13:53.497Z,41.90
2018-02-08T22:16:21.682Z,46.35
2018-02-08T22:18:49.830Z,51.63
2018-02-08T22:21:17.975Z,45.35
2018-02-08T22:23:46.154Z,47.70
2018-02-08T22:26:14.308Z,48.15
2018-02-08T22:28:42.478Z,49.95
2018-02-08T22:31:10.613Z,46.30
2018-02-08T22:33:38.783Z,44.90
2018-02-08T22:36:06.913Z,47.08
2018-02-08T22:38:35.081Z,50.63
2018-02-08T22:41:03.237Z,44.60
2018-02-08T22:46:05.733Z,45.53
2018-02-08T22:48:33.904Z,46.17
2018-02-08T22:51:02.046Z,39.15
2018-02-08T22:53:30.220Z,34.28
2018-02-08T22:55:58.362Z,46.53
2018-02-08T22:58:26.521Z,48.63
2018-02-08T23:00:54.665Z,47.62
2018-02-08T23:03:22.830Z,46.88
2018-02-08T23:05:50.962Z,43.08
2018-02-08T23:08:19.889Z,43.50
2018-02-08T23:10:48.030Z,50.20
2018-02-08T23:13:16.970Z,49.60
2018-02-08T23:15:45.105Z,47.35
2018-02-08T23:18:14.039Z,43.87
2018-02-08T23:20:42.169Z,47.75
2018-02-08T23:23:11.096Z,37.78
2018-02-08T23:25:39.239Z,48.95
2018-02-08T23:28:07.400Z,44.28
2018-02-08T23:30:36.302Z,43.20
2018-02-08T23:33:05.235Z,40.00
2018-02-08T23:35:33.378Z,41.45
2018-02-08T23:38:01.538Z,42.97
2018-02-08T23:40:29.675Z,43.40
2018-02-08T23:42:57.841Z,43.22
2018-02-08T23:45:25.981Z,35.15
2018-02-08T23:47:54.145Z,53.45
2018-02-08T23:50:22.283Z,40.40
2018-02-08T23:52:50.436Z,39.92
2018-02-08T23:55:18.572Z,46.90
2018-02-08T23:57:46.731Z,49.05
